sensor_id;sensor_type;location;lat;lon;timestamp;pressure;altitude;pressure_sealevel;temperature;humidity
71126;BME280;58785;55.566;38.058;2024-03-23T00:56:20;99418.53;;;3.42;69.87
71126;BME280;58785;55.566;38.058;2024-03-23T00:58:45;99399.47;;;3.38;70.30
71126;BME280;58785;55.566;38.058;2024-03-23T01:01:11;99413.84;;;3.45;70.26
71126;BME280;58785;55.566;38.058;2024-03-23T01:03:37;99400.53;;;3.47;70.13
71126;BME280;58785;55.566;38.058;2024-03-23T01:06:02;99398.50;;;3.51;70.22
71126;BME280;58785;55.566;38.058;2024-03-23T01:08:31;99401.13;;;3.51;69.95
71126;BME280;58785;55.566;38.058;2024-03-23T01:11:01;99399.69;;;3.58;70.20
71126;BME280;58785;55.566;38.058;2024-03-23T01:13:27;99397.78;;;3.60;70.59
71126;BME280;58785;55.566;38.058;2024-03-23T01:15:54;99377.53;;;3.60;70.39
71126;BME280;58785;55.566;38.058;2024-03-23T01:18:21;99380.66;;;3.65;70.26
71126;BME280;58785;55.566;38.058;2024-03-23T01:20:47;99378.00;;;3.65;70.05
71126;BME280;58785;55.566;38.058;2024-03-23T01:23:13;99372.03;;;3.63;70.12
71126;BME280;58785;55.566;38.058;2024-03-23T01:25:39;99371.19;;;3.63;70.05
71126;BME280;58785;55.566;38.058;2024-03-23T01:28:05;99371.53;;;3.69;69.88
71126;BME280;58785;55.566;38.058;2024-03-23T01:30:34;99363.38;;;3.72;70.36
71126;BME280;58785;55.566;38.058;2024-03-23T01:33:01;99352.84;;;3.72;70.36
71126;BME280;58785;55.566;38.058;2024-03-23T01:35:28;99360.75;;;3.72;70.69
71126;BME280;58785;55.566;38.058;2024-03-23T01:37:54;99354.38;;;3.75;70.47
71126;BME280;58785;55.566;38.058;2024-03-23T01:40:20;99352.47;;;3.77;70.54
71126;BME280;58785;55.566;38.058;2024-03-23T01:42:57;99344.81;;;3.74;70.78
71126;BME280;58785;55.566;38.058;2024-03-23T01:45:23;99343.00;;;3.74;70.87
71126;BME280;58785;55.566;38.058;2024-03-23T01:47:50;99343.72;;;3.77;70.80
71126;BME280;58785;55.566;38.058;2024-03-23T01:50:16;99335.81;;;3.77;70.82
71126;BME280;58785;55.566;38.058;2024-03-23T01:52:42;99334.38;;;3.72;71.13
71126;BME280;58785;55.566;38.058;2024-03-23T01:55:08;99330.78;;;3.73;70.80
71126;BME280;58785;55.566;38.058;2024-03-23T01:57:34;99332.34;;;3.76;70.69
71126;BME280;58785;55.566;38.058;2024-03-23T01:59:59;99320.94;;;3.75;70.95
71126;BME280;58785;55.566;38.058;2024-03-23T02:02:25;99320.47;;;3.70;71.31
71126;BME280;58785;55.566;38.058;2024-03-23T02:04:50;99318.78;;;3.69;71.24
71126;BME280;58785;55.566;38.058;2024-03-23T02:07:16;99312.69;;;3.69;71.05
71126;BME280;58785;55.566;38.058;2024-03-23T02:09:42;99308.38;;;3.68;71.50
71126;BME280;58785;55.566;38.058;2024-03-23T02:12:08;99299.38;;;3.70;71.75
71126;BME280;58785;55.566;38.058;2024-03-23T02:14:34;99306.22;;;3.73;71.27
71126;BME280;58785;55.566;38.058;2024-03-23T02:17:00;99304.16;;;3.77;71.06
71126;BME280;58785;55.566;38.058;2024-03-23T02:19:26;99305.72;;;3.79;71.46
71126;BME280;58785;55.566;38.058;2024-03-23T02:21:52;99303.91;;;3.80;71.34
71126;BME280;58785;55.566;38.058;2024-03-23T02:24:17;99301.28;;;3.80;71.48
71126;BME280;58785;55.566;38.058;2024-03-23T02:26:43;99291.69;;;3.79;71.38
71126;BME280;58785;55.566;38.058;2024-03-23T02:29:08;99279.16;;;3.71;71.51
71126;BME280;58785;55.566;38.058;2024-03-23T02:31:35;99289.19;;;3.77;71.92
71126;BME280;58785;55.566;38.058;2024-03-23T02:34:01;99275.41;;;3.73;72.26
71126;BME280;58785;55.566;38.058;2024-03-23T02:36:26;99272.69;;;3.64;72.46
71126;BME280;58785;55.566;38.058;2024-03-23T02:38:52;99268.13;;;3.66;72.61
71126;BME280;58785;55.566;38.058;2024-03-23T02:41:18;99264.66;;;3.65;72.45
71126;BME280;58785;55.566;38.058;2024-03-23T02:43:51;99262.41;;;3.61;72.71
71126;BME280;58785;55.566;38.058;2024-03-23T02:46:17;99269.34;;;3.62;72.70
71126;BME280;58785;55.566;38.058;2024-03-23T02:48:42;99257.84;;;3.63;72.55
71126;BME280;58785;55.566;38.058;2024-03-23T02:51:08;99256.03;;;3.63;72.36
71126;BME280;58785;55.566;38.058;2024-03-23T02:53:34;99250.91;;;3.62;72.70
71126;BME280;58785;55.566;38.058;2024-03-23T02:56:00;99242.88;;;3.63;73.11
71126;BME280;58785;55.566;38.058;2024-03-23T02:58:25;99239.38;;;3.63;72.97
71126;BME280;58785;55.566;38.058;2024-03-23T03:00:51;99234.34;;;3.60;73.09
71126;BME280;58785;55.566;38.058;2024-03-23T03:03:17;99241.31;;;3.61;73.51
71126;BME280;58785;55.566;38.058;2024-03-23T03:05:43;99232.44;;;3.62;73.45
71126;BME280;58785;55.566;38.058;2024-03-23T03:08:08;99226.34;;;3.61;73.26
71126;BME280;58785;55.566;38.058;2024-03-23T03:10:34;99215.78;;;3.61;73.49
71126;BME280;58785;55.566;38.058;2024-03-23T03:13:01;99217.47;;;3.62;73.86
71126;BME280;58785;55.566;38.058;2024-03-23T03:15:27;99212.06;;;3.64;73.38
71126;BME280;58785;55.566;38.058;2024-03-23T03:17:53;99222.22;;;3.68;73.34
71126;BME280;58785;55.566;38.058;2024-03-23T03:20:19;99207.09;;;3.70;73.63
71126;BME280;58785;55.566;38.058;2024-03-23T03:22:47;99204.38;;;3.72;73.85
71126;BME280;58785;55.566;38.058;2024-03-23T03:25:13;99194.53;;;3.74;73.23
71126;BME280;58785;55.566;38.058;2024-03-23T03:27:38;99195.22;;;3.76;73.47
71126;BME280;58785;55.566;38.058;2024-03-23T03:30:04;99200.38;;;3.78;73.70
71126;BME280;58785;55.566;38.058;2024-03-23T03:32:32;99187.78;;;3.81;73.59
71126;BME280;58785;55.566;38.058;2024-03-23T03:34:58;99171.97;;;3.81;73.96
71126;BME280;58785;55.566;38.058;2024-03-23T03:37:24;99176.38;;;3.81;73.68
71126;BME280;58785;55.566;38.058;2024-03-23T03:39:49;99170.03;;;3.83;73.50
71126;BME280;58785;55.566;38.058;2024-03-23T03:42:15;99163.09;;;3.82;73.56
71126;BME280;58785;55.566;38.058;2024-03-23T03:44:41;99172.28;;;3.88;73.69
71126;BME280;58785;55.566;38.058;2024-03-23T03:47:06;99157.16;;;3.90;73.71
71126;BME280;58785;55.566;38.058;2024-03-23T03:49:32;99167.00;;;3.88;74.04
71126;BME280;58785;55.566;38.058;2024-03-23T03:51:57;99158.25;;;3.87;73.92
71126;BME280;58785;55.566;38.058;2024-03-23T03:54:23;99146.38;;;3.93;73.88
71126;BME280;58785;55.566;38.058;2024-03-23T03:56:49;99148.16;;;3.92;73.78
71126;BME280;58785;55.566;38.058;2024-03-23T03:59:15;99144.69;;;3.92;73.92
71126;BME280;58785;55.566;38.058;2024-03-23T04:01:40;99133.31;;;3.91;74.18
71126;BME280;58785;55.566;38.058;2024-03-23T04:04:06;99149.44;;;3.98;73.89
71126;BME280;58785;55.566;38.058;2024-03-23T04:06:32;99131.69;;;4.00;74.08
71126;BME280;58785;55.566;38.058;2024-03-23T04:08:59;99142.00;;;4.03;73.85
71126;BME280;58785;55.566;38.058;2024-03-23T04:11:25;99135.88;;;4.02;73.95
71126;BME280;58785;55.566;38.058;2024-03-23T04:13:50;99134.97;;;4.13;73.97
71126;BME280;58785;55.566;38.058;2024-03-23T04:16:37;99131.34;;;4.14;73.75
71126;BME280;58785;55.566;38.058;2024-03-23T04:19:03;99120.41;;;4.19;73.83
71126;BME280;58785;55.566;38.058;2024-03-23T04:21:29;99114.88;;;4.22;74.03
71126;BME280;58785;55.566;38.058;2024-03-23T04:23:55;99105.03;;;4.24;73.83
71126;BME280;58785;55.566;38.058;2024-03-23T04:26:20;99111.97;;;4.25;73.86
71126;BME280;58785;55.566;38.058;2024-03-23T04:28:46;99108.38;;;4.26;73.81
71126;BME280;58785;55.566;38.058;2024-03-23T04:31:12;99098.38;;;4.29;74.04
71126;BME280;58785;55.566;38.058;2024-03-23T04:33:37;99094.75;;;4.30;73.99
71126;BME280;58785;55.566;38.058;2024-03-23T04:36:03;99090.63;;;4.38;73.78
71126;BME280;58785;55.566;38.058;2024-03-23T04:38:29;99096.91;;;4.46;73.95
71126;BME280;58785;55.566;38.058;2024-03-23T04:40:58;99099.28;;;4.49;74.27
71126;BME280;58785;55.566;38.058;2024-03-23T04:43:26;99088.34;;;4.54;73.24
71126;BME280;58785;55.566;38.058;2024-03-23T04:45:51;99088.47;;;4.52;73.90
71126;BME280;58785;55.566;38.058;2024-03-23T04:48:20;99074.44;;;4.52;73.97
71126;BME280;58785;55.566;38.058;2024-03-23T04:50:46;99077.78;;;4.54;73.76
71126;BME280;58785;55.566;38.058;2024-03-23T04:53:11;99071.66;;;4.53;73.77
71126;BME280;58785;55.566;38.058;2024-03-23T04:55:37;99070.69;;;4.54;74.06
71126;BME280;58785;55.566;38.058;2024-03-23T04:58:03;99061.94;;;4.54;74.05
71126;BME280;58785;55.566;38.058;2024-03-23T05:00:28;99056.09;;;4.60;74.01
71126;BME280;58785;55.566;38.058;2024-03-23T05:02:54;99063.19;;;4.69;73.70
71126;BME280;58785;55.566;38.058;2024-03-23T05:05:20;99060.88;;;4.76;73.38
71126;BME280;58785;55.566;38.058;2024-03-23T05:07:45;99054.75;;;4.75;73.33
71126;BME280;58785;55.566;38.058;2024-03-23T05:10:11;99053.50;;;4.79;73.80
71126;BME280;58785;55.566;38.058;2024-03-23T05:12:38;99061.84;;;4.84;73.55
71126;BME280;58785;55.566;38.058;2024-03-23T05:15:05;99057.94;;;4.88;73.66
71126;BME280;58785;55.566;38.058;2024-03-23T05:17:32;99047.97;;;4.92;73.32
71126;BME280;58785;55.566;38.058;2024-03-23T05:19:58;99051.72;;;4.99;73.36
71126;BME280;58785;55.566;38.058;2024-03-23T05:22:23;99035.84;;;4.99;73.48
71126;BME280;58785;55.566;38.058;2024-03-23T05:24:49;99041.97;;;5.00;73.57
71126;BME280;58785;55.566;38.058;2024-03-23T05:27:14;99042.41;;;5.05;73.58
71126;BME280;58785;55.566;38.058;2024-03-23T05:29:40;99047.53;;;5.06;73.41
71126;BME280;58785;55.566;38.058;2024-03-23T05:32:06;99033.66;;;5.04;73.66
71126;BME280;58785;55.566;38.058;2024-03-23T05:34:32;99035.16;;;5.07;73.53
71126;BME280;58785;55.566;38.058;2024-03-23T05:36:57;99041.00;;;5.10;73.58
71126;BME280;58785;55.566;38.058;2024-03-23T05:39:23;99040.88;;;5.12;73.80
71126;BME280;58785;55.566;38.058;2024-03-23T05:41:49;99027.53;;;5.13;73.36
71126;BME280;58785;55.566;38.058;2024-03-23T05:44:15;99028.06;;;5.17;73.24
71126;BME280;58785;55.566;38.058;2024-03-23T05:46:41;99031.41;;;5.19;73.97
71126;BME280;58785;55.566;38.058;2024-03-23T05:49:07;99019.84;;;5.20;73.32
71126;BME280;58785;55.566;38.058;2024-03-23T05:51:32;99020.28;;;5.25;73.36
71126;BME280;58785;55.566;38.058;2024-03-23T05:53:58;99021.66;;;5.29;73.00
71126;BME280;58785;55.566;38.058;2024-03-23T05:56:24;99014.31;;;5.33;73.62
71126;BME280;58785;55.566;38.058;2024-03-23T05:58:51;99020.69;;;5.30;73.48
71126;BME280;58785;55.566;38.058;2024-03-23T06:01:17;99005.94;;;5.28;73.70
71126;BME280;58785;55.566;38.058;2024-03-23T06:03:43;99010.81;;;5.32;73.94
71126;BME280;58785;55.566;38.058;2024-03-23T06:06:10;99002.47;;;5.37;73.73
71126;BME280;58785;55.566;38.058;2024-03-23T06:08:37;98998.69;;;5.39;73.91
71126;BME280;58785;55.566;38.058;2024-03-23T06:11:04;99001.91;;;5.43;74.09
71126;BME280;58785;55.566;38.058;2024-03-23T06:13:32;99002.75;;;5.43;74.06
71126;BME280;58785;55.566;38.058;2024-03-23T06:15:58;98993.25;;;5.41;73.96
71126;BME280;58785;55.566;38.058;2024-03-23T06:18:24;98989.94;;;5.39;74.17
71126;BME280;58785;55.566;38.058;2024-03-23T06:20:50;98976.84;;;5.37;74.50
71126;BME280;58785;55.566;38.058;2024-03-23T06:23:15;98987.03;;;5.42;74.96
71126;BME280;58785;55.566;38.058;2024-03-23T06:25:42;98988.53;;;5.44;74.72
71126;BME280;58785;55.566;38.058;2024-03-23T06:28:08;98985.75;;;5.46;74.39
71126;BME280;58785;55.566;38.058;2024-03-23T06:30:34;98981.75;;;5.42;74.38
71126;BME280;58785;55.566;38.058;2024-03-23T06:33:00;98984.38;;;5.42;74.87
71126;BME280;58785;55.566;38.058;2024-03-23T06:35:25;98983.53;;;5.41;75.04
71126;BME280;58785;55.566;38.058;2024-03-23T06:37:51;98970.44;;;5.40;75.08
71126;BME280;58785;55.566;38.058;2024-03-23T06:40:16;98978.25;;;5.41;74.50
71126;BME280;58785;55.566;38.058;2024-03-23T06:42:42;98974.19;;;5.47;74.62
71126;BME280;58785;55.566;38.058;2024-03-23T06:45:08;98971.81;;;5.54;74.94
71126;BME280;58785;55.566;38.058;2024-03-23T06:47:34;98973.34;;;5.56;75.02
71126;BME280;58785;55.566;38.058;2024-03-23T06:50:00;98967.75;;;5.59;74.91
71126;BME280;58785;55.566;38.058;2024-03-23T06:52:31;98962.31;;;5.61;74.84
71126;BME280;58785;55.566;38.058;2024-03-23T06:54:57;98965.06;;;5.69;75.24
71126;BME280;58785;55.566;38.058;2024-03-23T06:57:23;98960.88;;;5.76;75.16
71126;BME280;58785;55.566;38.058;2024-03-23T06:59:49;98962.25;;;5.80;74.68
71126;BME280;58785;55.566;38.058;2024-03-23T07:02:15;98945.00;;;5.76;75.18
71126;BME280;58785;55.566;38.058;2024-03-23T07:04:41;98952.38;;;5.82;75.18
71126;BME280;58785;55.566;38.058;2024-03-23T07:07:07;98952.06;;;5.85;75.27
71126;BME280;58785;55.566;38.058;2024-03-23T07:09:33;98939.66;;;5.95;74.52
71126;BME280;58785;55.566;38.058;2024-03-23T07:11:58;98941.50;;;5.95;74.52
71126;BME280;58785;55.566;38.058;2024-03-23T07:14:24;98939.16;;;5.92;74.90
71126;BME280;58785;55.566;38.058;2024-03-23T07:16:50;98929.34;;;6.02;74.85
71126;BME280;58785;55.566;38.058;2024-03-23T07:19:17;98931.22;;;6.10;74.91
71126;BME280;58785;55.566;38.058;2024-03-23T07:21:44;98930.13;;;6.12;74.33
71126;BME280;58785;55.566;38.058;2024-03-23T07:24:10;98924.06;;;6.20;74.49
71126;BME280;58785;55.566;38.058;2024-03-23T07:26:36;98925.72;;;6.21;74.44
71126;BME280;58785;55.566;38.058;2024-03-23T07:29:04;98920.59;;;6.19;74.83
71126;BME280;58785;55.566;38.058;2024-03-23T07:31:30;98919.47;;;6.22;74.22
71126;BME280;58785;55.566;38.058;2024-03-23T07:33:56;98926.13;;;6.26;74.13
71126;BME280;58785;55.566;38.058;2024-03-23T07:36:21;98915.06;;;6.30;74.39
71126;BME280;58785;55.566;38.058;2024-03-23T07:38:47;98920.25;;;6.32;74.75
71126;BME280;58785;55.566;38.058;2024-03-23T07:41:18;98914.25;;;6.30;74.32
71126;BME280;58785;55.566;38.058;2024-03-23T07:43:45;98922.13;;;6.22;74.46
71126;BME280;58785;55.566;38.058;2024-03-23T07:46:14;98909.56;;;6.24;74.17
71126;BME280;58785;55.566;38.058;2024-03-23T07:48:40;98905.09;;;6.24;75.05
71126;BME280;58785;55.566;38.058;2024-03-23T07:51:09;98909.56;;;6.24;74.50
71126;BME280;58785;55.566;38.058;2024-03-23T07:53:36;98905.41;;;6.21;74.71
71126;BME280;58785;55.566;38.058;2024-03-23T07:56:07;98906.75;;;6.25;75.03
71126;BME280;58785;55.566;38.058;2024-03-23T07:58:34;98906.91;;;6.24;75.02
71126;BME280;58785;55.566;38.058;2024-03-23T08:01:11;98906.09;;;6.23;74.67
71126;BME280;58785;55.566;38.058;2024-03-23T08:03:38;98914.25;;;6.30;74.46
71126;BME280;58785;55.566;38.058;2024-03-23T08:08:34;98887.25;;;6.26;74.74
71126;BME280;58785;55.566;38.058;2024-03-23T08:11:00;98892.22;;;6.29;74.86
71126;BME280;58785;55.566;38.058;2024-03-23T08:13:26;98890.13;;;6.33;74.67
71126;BME280;58785;55.566;38.058;2024-03-23T08:15:55;98876.06;;;6.32;74.46
71126;BME280;58785;55.566;38.058;2024-03-23T08:18:21;98891.13;;;6.32;75.20
71126;BME280;58785;55.566;38.058;2024-03-23T08:20:55;98893.63;;;6.33;74.97
71126;BME280;58785;55.566;38.058;2024-03-23T08:23:21;98895.66;;;6.40;74.90
71126;BME280;58785;55.566;38.058;2024-03-23T08:25:46;98884.47;;;6.46;74.49
71126;BME280;58785;55.566;38.058;2024-03-23T08:28:12;98885.69;;;6.51;74.70
71126;BME280;58785;55.566;38.058;2024-03-23T08:30:38;98886.63;;;6.50;74.40
71126;BME280;58785;55.566;38.058;2024-03-23T08:33:03;98883.41;;;6.56;74.19
71126;BME280;58785;55.566;38.058;2024-03-23T08:35:29;98870.31;;;6.55;74.17
71126;BME280;58785;55.566;38.058;2024-03-23T08:37:55;98872.13;;;6.54;74.50
71126;BME280;58785;55.566;38.058;2024-03-23T08:40:20;98855.03;;;6.49;74.33
71126;BME280;58785;55.566;38.058;2024-03-23T08:42:46;98863.88;;;6.57;74.30
71126;BME280;58785;55.566;38.058;2024-03-23T08:45:12;98863.03;;;6.57;74.83
71126;BME280;58785;55.566;38.058;2024-03-23T08:47:37;98854.72;;;6.52;74.94
71126;BME280;58785;55.566;38.058;2024-03-23T08:50:03;98855.56;;;6.52;74.85
71126;BME280;58785;55.566;38.058;2024-03-23T08:52:30;98857.22;;;6.53;75.05
71126;BME280;58785;55.566;38.058;2024-03-23T08:54:55;98854.56;;;6.53;74.72
71126;BME280;58785;55.566;38.058;2024-03-23T08:57:23;98852.75;;;6.54;75.00
71126;BME280;58785;55.566;38.058;2024-03-23T08:59:48;98844.00;;;6.53;74.83
71126;BME280;58785;55.566;38.058;2024-03-23T09:02:15;98850.78;;;6.56;74.79
71126;BME280;58785;55.566;38.058;2024-03-23T09:04:40;98842.31;;;6.52;74.57
71126;BME280;58785;55.566;38.058;2024-03-23T09:07:06;98842.16;;;6.54;75.14
71126;BME280;58785;55.566;38.058;2024-03-23T09:09:31;98836.03;;;6.53;74.41
71126;BME280;58785;55.566;38.058;2024-03-23T09:11:57;98832.59;;;6.61;74.85
71126;BME280;58785;55.566;38.058;2024-03-23T09:14:22;98838.75;;;6.61;74.93
71126;BME280;58785;55.566;38.058;2024-03-23T09:16:51;98825.97;;;6.57;74.81
71126;BME280;58785;55.566;38.058;2024-03-23T09:19:17;98834.59;;;6.59;74.82
71126;BME280;58785;55.566;38.058;2024-03-23T09:21:43;98832.59;;;6.61;75.02
71126;BME280;58785;55.566;38.058;2024-03-23T09:24:09;98832.47;;;6.62;74.79
71126;BME280;58785;55.566;38.058;2024-03-23T09:26:34;98833.97;;;6.65;74.36
71126;BME280;58785;55.566;38.058;2024-03-23T09:29:00;98822.22;;;6.68;74.64
71126;BME280;58785;55.566;38.058;2024-03-23T09:31:26;98828.34;;;6.86;74.45
71126;BME280;58785;55.566;38.058;2024-03-23T09:33:51;98826.03;;;6.91;73.80
71126;BME280;58785;55.566;38.058;2024-03-23T09:36:18;98819.13;;;6.98;73.67
71126;BME280;58785;55.566;38.058;2024-03-23T09:38:44;98817.38;;;7.07;74.09
71126;BME280;58785;55.566;38.058;2024-03-23T09:41:10;98821.84;;;7.06;73.77
71126;BME280;58785;55.566;38.058;2024-03-23T09:43:35;98810.41;;;7.06;74.58
71126;BME280;58785;55.566;38.058;2024-03-23T09:46:03;98811.38;;;7.05;74.50
71126;BME280;58785;55.566;38.058;2024-03-23T09:48:29;98808.59;;;7.06;73.58
71126;BME280;58785;55.566;38.058;2024-03-23T09:50:55;98797.16;;;7.06;74.49
71126;BME280;58785;55.566;38.058;2024-03-23T09:53:21;98805.94;;;7.06;74.27
71126;BME280;58785;55.566;38.058;2024-03-23T09:55:48;98810.41;;;7.06;74.08
71126;BME280;58785;55.566;38.058;2024-03-23T09:58:15;98806.72;;;6.99;74.15
71126;BME280;58785;55.566;38.058;2024-03-23T10:00:41;98805.47;;;6.85;74.21
71126;BME280;58785;55.566;38.058;2024-03-23T10:03:08;98801.16;;;6.84;74.35
71126;BME280;58785;55.566;38.058;2024-03-23T10:05:36;98808.13;;;6.85;74.46
71126;BME280;58785;55.566;38.058;2024-03-23T10:10:41;98807.34;;;6.93;73.97
71126;BME280;58785;55.566;38.058;2024-03-23T10:13:06;98808.69;;;6.97;74.65
71126;BME280;58785;55.566;38.058;2024-03-23T10:15:36;98807.25;;;7.02;74.15
71126;BME280;58785;55.566;38.058;2024-03-23T10:18:32;98804.28;;;7.05;74.52
71126;BME280;58785;55.566;38.058;2024-03-23T10:23:31;98780.91;;;7.09;74.45
71126;BME280;58785;55.566;38.058;2024-03-23T10:26:12;98792.84;;;7.05;74.38
71126;BME280;58785;55.566;38.058;2024-03-23T10:28:59;98779.75;;;7.03;74.14
71126;BME280;58785;55.566;38.058;2024-03-23T10:31:28;98771.09;;;7.01;74.56
71126;BME280;58785;55.566;38.058;2024-03-23T10:33:54;98770.66;;;7.06;74.66
71126;BME280;58785;55.566;38.058;2024-03-23T10:36:21;98776.09;;;7.04;74.56
71126;BME280;58785;55.566;38.058;2024-03-23T10:38:47;98771.59;;;6.97;74.80
71126;BME280;58785;55.566;38.058;2024-03-23T10:41:14;98772.41;;;6.97;74.74
71126;BME280;58785;55.566;38.058;2024-03-23T10:43:40;98752.03;;;6.98;74.56
71126;BME280;58785;55.566;38.058;2024-03-23T10:46:08;98757.00;;;6.93;75.04
71126;BME280;58785;55.566;38.058;2024-03-23T10:48:34;98753.03;;;6.97;74.91
71126;BME280;58785;55.566;38.058;2024-03-23T10:51:00;98754.03;;;6.96;74.66
71126;BME280;58785;55.566;38.058;2024-03-23T10:53:26;98754.84;;;6.96;74.36
71126;BME280;58785;55.566;38.058;2024-03-23T10:55:54;98749.88;;;6.93;74.28
71126;BME280;58785;55.566;38.058;2024-03-23T10:58:31;98745.03;;;6.88;74.69
71126;BME280;58785;55.566;38.058;2024-03-23T11:00:58;98738.09;;;6.87;74.43
71126;BME280;58785;55.566;38.058;2024-03-23T11:03:37;98748.19;;;6.84;74.77
71126;BME280;58785;55.566;38.058;2024-03-23T11:06:06;98755.28;;;6.83;74.78
71126;BME280;58785;55.566;38.058;2024-03-23T11:08:38;98749.84;;;6.85;74.57
71126;BME280;58785;55.566;38.058;2024-03-23T11:11:24;98742.09;;;6.91;74.60
71126;BME280;58785;55.566;38.058;2024-03-23T11:13:51;98742.59;;;6.95;74.92
71126;BME280;58785;55.566;38.058;2024-03-23T11:16:28;98748.56;;;6.97;74.89
71126;BME280;58785;55.566;38.058;2024-03-23T11:19:35;98748.22;;;6.92;74.43
71126;BME280;58785;55.566;38.058;2024-03-23T11:22:04;98752.00;;;6.89;74.45
71126;BME280;58785;55.566;38.058;2024-03-23T11:24:31;98743.72;;;6.84;74.84
71126;BME280;58785;55.566;38.058;2024-03-23T11:26:57;98728.09;;;6.81;75.16
71126;BME280;58785;55.566;38.058;2024-03-23T11:29:30;98727.97;;;6.83;75.01
71126;BME280;58785;55.566;38.058;2024-03-23T11:31:56;98731.44;;;6.83;75.16
71126;BME280;58785;55.566;38.058;2024-03-23T11:34:22;98730.28;;;6.86;75.09
71126;BME280;58785;55.566;38.058;2024-03-23T11:36:48;98734.59;;;6.87;75.49
71126;BME280;58785;55.566;38.058;2024-03-23T11:39:20;98731.78;;;6.88;75.09
71126;BME280;58785;55.566;38.058;2024-03-23T11:41:53;98731.16;;;6.95;75.84
71126;BME280;58785;55.566;38.058;2024-03-23T11:44:20;98725.22;;;7.01;75.12
71126;BME280;58785;55.566;38.058;2024-03-23T11:46:48;98719.28;;;7.07;74.21
71126;BME280;58785;55.566;38.058;2024-03-23T11:49:28;98719.78;;;7.02;75.20
71126;BME280;58785;55.566;38.058;2024-03-23T11:51:57;98721.25;;;6.97;74.99
71126;BME280;58785;55.566;38.058;2024-03-23T11:54:24;98715.06;;;6.88;74.86
71126;BME280;58785;55.566;38.058;2024-03-23T11:56:57;98719.53;;;6.87;75.34
71126;BME280;58785;55.566;38.058;2024-03-23T11:59:39;98727.28;;;6.81;75.06
71126;BME280;58785;55.566;38.058;2024-03-23T12:02:07;98719.31;;;6.81;75.43
71126;BME280;58785;55.566;38.058;2024-03-23T12:04:33;98717.00;;;6.78;75.58
71126;BME280;58785;55.566;38.058;2024-03-23T12:07:14;98712.69;;;6.77;75.45
71126;BME280;58785;55.566;38.058;2024-03-23T12:09:41;98720.47;;;6.78;75.35
71126;BME280;58785;55.566;38.058;2024-03-23T12:12:13;98710.38;;;6.74;75.51
71126;BME280;58785;55.566;38.058;2024-03-23T12:14:41;98713.31;;;6.71;76.12
71126;BME280;58785;55.566;38.058;2024-03-23T12:17:14;98706.19;;;6.71;75.66
71126;BME280;58785;55.566;38.058;2024-03-23T12:19:42;98712.34;;;6.72;76.22
71126;BME280;58785;55.566;38.058;2024-03-23T12:22:08;98718.59;;;6.71;76.23
71126;BME280;58785;55.566;38.058;2024-03-23T12:24:34;98713.03;;;6.74;75.54
71126;BME280;58785;55.566;38.058;2024-03-23T12:27:04;98703.53;;;6.71;76.49
71126;BME280;58785;55.566;38.058;2024-03-23T12:29:31;98705.75;;;6.76;76.00
71126;BME280;58785;55.566;38.058;2024-03-23T12:32:01;98707.91;;;6.80;75.66
71126;BME280;58785;55.566;38.058;2024-03-23T12:34:28;98711.03;;;6.76;75.67
71126;BME280;58785;55.566;38.058;2024-03-23T12:36:54;98710.66;;;6.71;76.00
71126;BME280;58785;55.566;38.058;2024-03-23T12:39:20;98718.94;;;6.68;75.69
71126;BME280;58785;55.566;38.058;2024-03-23T12:41:51;98710.94;;;6.59;76.03
71126;BME280;58785;55.566;38.058;2024-03-23T12:44:20;98707.94;;;6.54;76.28
71126;BME280;58785;55.566;38.058;2024-03-23T12:46:46;98701.16;;;6.52;76.54
71126;BME280;58785;55.566;38.058;2024-03-23T12:49:12;98708.38;;;6.50;77.03
71126;BME280;58785;55.566;38.058;2024-03-23T12:51:38;98701.59;;;6.47;77.04
71126;BME280;58785;55.566;38.058;2024-03-23T12:54:04;98706.91;;;6.47;76.40
71126;BME280;58785;55.566;38.058;2024-03-23T12:56:30;98708.38;;;6.50;76.30
71126;BME280;58785;55.566;38.058;2024-03-23T12:58:56;98715.22;;;6.52;76.49
71126;BME280;58785;55.566;38.058;2024-03-23T13:01:26;98719.38;;;6.55;76.52
71126;BME280;58785;55.566;38.058;2024-03-23T13:03:52;98717.88;;;6.52;76.29
71126;BME280;58785;55.566;38.058;2024-03-23T13:06:18;98712.19;;;6.47;76.46
71126;BME280;58785;55.566;38.058;2024-03-23T13:08:47;98710.03;;;6.43;76.76
71126;BME280;58785;55.566;38.058;2024-03-23T13:11:15;98711.97;;;6.41;77.19
71126;BME280;58785;55.566;38.058;2024-03-23T13:13:41;98702.38;;;6.40;76.57
71126;BME280;58785;55.566;38.058;2024-03-23T13:16:07;98704.34;;;6.38;76.70
71126;BME280;58785;55.566;38.058;2024-03-23T13:18:33;98705.50;;;6.35;77.14
71126;BME280;58785;55.566;38.058;2024-03-23T13:20:59;98704.13;;;6.31;77.66
71126;BME280;58785;55.566;38.058;2024-03-23T13:23:25;98700.16;;;6.27;77.44
71126;BME280;58785;55.566;38.058;2024-03-23T13:25:55;98697.66;;;6.25;77.53
71126;BME280;58785;55.566;38.058;2024-03-23T13:28:22;98709.06;;;6.26;77.80
71126;BME280;58785;55.566;38.058;2024-03-23T13:30:55;98698.66;;;6.24;77.93
71126;BME280;58785;55.566;38.058;2024-03-23T13:33:21;98692.69;;;6.22;77.61
71126;BME280;58785;55.566;38.058;2024-03-23T13:35:50;98697.28;;;6.20;78.22
71126;BME280;58785;55.566;38.058;2024-03-23T13:38:16;98691.47;;;6.17;77.84
71126;BME280;58785;55.566;38.058;2024-03-23T13:40:55;98699.56;;;6.15;78.51
71126;BME280;58785;55.566;38.058;2024-03-23T13:43:25;98690.97;;;6.13;78.22
71126;BME280;58785;55.566;38.058;2024-03-23T13:45:58;98694.44;;;6.14;78.17
71126;BME280;58785;55.566;38.058;2024-03-23T13:48:26;98693.75;;;6.12;78.83
71126;BME280;58785;55.566;38.058;2024-03-23T13:50:58;98684.84;;;6.13;78.36
71126;BME280;58785;55.566;38.058;2024-03-23T13:53:25;98679.22;;;6.16;78.11
71126;BME280;58785;55.566;38.058;2024-03-23T13:55:51;98678.84;;;6.11;78.59
71126;BME280;58785;55.566;38.058;2024-03-23T13:58:17;98681.50;;;6.11;78.83
71126;BME280;58785;55.566;38.058;2024-03-23T14:00:42;98677.88;;;6.12;78.48
71126;BME280;58785;55.566;38.058;2024-03-23T14:03:09;98681.34;;;6.12;79.13